LEAL/ALC METAR and TAF weather

Enter ICAO airport designator
Station Type Date Time Source
LEAL METAR 2019/11/18 14:30 UTC NOAA

LEAL 181430Z 29014KT 260V320 9999 SCT060 17/04 Q1011 NOSIG


Station Type Date Time Source
LEAL Decoded METAR 2019/11/18 14:30 UTC NOAA

Alicante / El Altet, Spain (LEAL) 38-17N 000-33W 31M
Nov 18, 2019 - 09:30 AM EST / 2019.11.18 1430 UTC
Wind: from the WNW (290 degrees) at 16 MPH (14 KT) (direction variable):0
Visibility: greater than 7 mile(s):0
Sky conditions: partly cloudy
Temperature: 62 F (17 C)
Dew Point: 39 F (4 C)
Relative Humidity: 41%
Pressure (altimeter): 29.85 in. Hg (1011 hPa)
ob: LEAL 181430Z 29014KT 260V320 9999 SCT060 17/04 Q1011 NOSIG
cycle: 14

Station Type Date Time Source
LEAL TAF 2019/11/18 12:27 UTC NOAA

TAF TAF LEAL 181100Z 1812/1912 33007KT 9999 FEW040 TX17/1813Z TN06/1906Z
BECMG 1815/1817 33012KT

Example: see airport list